createdAt,value
2022-11-12T00:01:27.272Z,13.15
2022-11-12T00:04:29.813Z,12.27
2022-11-12T00:07:31.497Z,11.40
2022-11-12T00:10:32.862Z,14.75
2022-11-12T00:13:34.325Z,13.65
2022-11-12T00:16:35.867Z,13.25
2022-11-12T00:19:38.353Z,11.90
2022-11-12T00:22:39.790Z,13.15
2022-11-12T00:25:40.746Z,13.50
2022-11-12T00:28:41.890Z,15.25
2022-11-12T00:31:43.190Z,12.32
2022-11-12T00:34:45.789Z,17.67
2022-11-12T00:37:46.933Z,12.45
2022-11-12T00:40:47.877Z,13.57
2022-11-12T00:43:49.029Z,13.65
2022-11-12T00:46:50.203Z,13.15
2022-11-12T00:49:52.620Z,13.35
2022-11-12T00:52:54.302Z,14.80
2022-11-12T00:56:00.516Z,15.73
2022-11-12T00:59:01.640Z,13.57
2022-11-12T01:02:02.946Z,12.32
2022-11-12T01:05:05.753Z,13.63
2022-11-12T01:08:06.904Z,15.27
2022-11-12T01:11:09.327Z,11.85
2022-11-12T01:14:11.360Z,14.43
2022-11-12T01:17:12.697Z,14.93
2022-11-12T01:20:15.332Z,15.25
2022-11-12T01:23:16.602Z,15.55
2022-11-12T01:26:22.616Z,13.63
2022-11-12T01:29:23.838Z,16.00
2022-11-12T01:32:25.058Z,13.68
2022-11-12T01:35:27.883Z,13.75
2022-11-12T01:38:29.474Z,14.40
2022-11-12T01:41:31.601Z,12.98
2022-11-12T01:44:32.935Z,14.52
2022-11-12T01:47:35.487Z,14.57
2022-11-12T01:50:39.628Z,13.88
2022-11-12T01:53:44.559Z,12.50
2022-11-12T01:56:46.144Z,11.93
2022-11-12T01:59:48.990Z,11.45
2022-11-12T02:02:53.300Z,14.13
2022-11-12T02:05:58.292Z,11.43
2022-11-12T02:08:59.531Z,13.43
2022-11-12T02:12:00.892Z,13.30
2022-11-12T02:15:01.024Z,12.75
2022-11-12T02:18:02.387Z,11.90
2022-11-12T02:21:06.593Z,13.20
2022-11-12T02:24:22.483Z,10.57
2022-11-12T02:27:25.327Z,11.65
2022-11-12T02:30:32.494Z,11.55
2022-11-12T02:33:33.541Z,11.25
2022-11-12T02:36:35.062Z,10.52
2022-11-12T02:39:36.209Z,11.93
2022-11-12T02:42:38.775Z,10.55
2022-11-12T02:45:39.992Z,10.52
2022-11-12T02:48:41.035Z,10.88
2022-11-12T02:51:42.314Z,9.75
2022-11-12T02:54:43.422Z,11.82
2022-11-12T02:57:46.114Z,8.20
2022-11-12T03:00:48.146Z,10.27
2022-11-12T03:03:49.435Z,10.30
2022-11-12T03:06:50.770Z,10.43
2022-11-12T03:09:51.826Z,10.75
2022-11-12T03:12:54.800Z,10.27
2022-11-12T03:15:59.941Z,11.68
2022-11-12T03:19:01.096Z,12.02
2022-11-12T03:22:02.379Z,9.10
2022-11-12T03:25:03.528Z,10.60
2022-11-12T03:28:06.994Z,13.05
2022-11-12T03:31:08.157Z,12.10
2022-11-12T03:34:09.306Z,12.55
2022-11-12T03:37:10.610Z,9.82
2022-11-12T03:40:11.992Z,9.23
2022-11-12T03:43:14.831Z,9.23
2022-11-12T03:46:16.250Z,9.65
2022-11-12T03:49:17.311Z,12.40
2022-11-12T03:52:18.739Z,9.18
2022-11-12T03:55:20.786Z,10.70
2022-11-12T03:58:23.427Z,11.65
2022-11-12T04:01:25.119Z,11.52
2022-11-12T04:04:47.171Z,11.23
2022-11-12T04:08:07.691Z,11.52
2022-11-12T04:11:09.953Z,11.68
2022-11-12T04:14:12.600Z,9.68
2022-11-12T04:17:30.961Z,10.55
2022-11-12T04:21:01.191Z,9.48
2022-11-12T04:24:02.450Z,11.68
2022-11-12T04:27:02.801Z,11.77
2022-11-12T04:30:18.973Z,8.85
2022-11-12T04:33:20.208Z,8.63
2022-11-12T04:36:21.178Z,9.65
2022-11-12T04:39:22.185Z,11.77
2022-11-12T04:42:40.760Z,10.77
2022-11-12T04:45:44.857Z,9.15
2022-11-12T04:48:45.732Z,8.85
2022-11-12T04:52:04.359Z,8.98
2022-11-12T04:55:06.457Z,10.25
2022-11-12T04:58:07.702Z,9.30
2022-11-12T05:01:10.374Z,11.25
2022-11-12T05:04:11.883Z,8.82
2022-11-12T05:07:13.310Z,9.40
2022-11-12T05:10:14.772Z,10.25
2022-11-12T05:13:15.688Z,9.48
2022-11-12T05:16:18.488Z,8.88
2022-11-12T05:19:19.906Z,10.30
2022-11-12T05:22:42.174Z,7.97
2022-11-12T05:25:42.399Z,10.85
2022-11-12T05:28:43.405Z,9.13
2022-11-12T05:31:46.269Z,8.55
2022-11-12T05:34:47.506Z,10.30
2022-11-12T05:37:48.921Z,10.30
2022-11-12T05:40:49.753Z,8.63
2022-11-12T05:43:51.068Z,10.73
2022-11-12T05:46:53.723Z,9.85
2022-11-12T05:49:55.049Z,9.50
2022-11-12T05:52:56.427Z,8.38
2022-11-12T05:56:01.902Z,8.05
2022-11-12T05:59:03.459Z,9.73
2022-11-12T06:02:06.316Z,8.07
2022-11-12T06:05:08.442Z,9.07
2022-11-12T06:08:09.500Z,6.90
2022-11-12T06:11:10.625Z,8.27
2022-11-12T06:14:11.724Z,7.88
2022-11-12T06:17:14.237Z,7.22
2022-11-12T06:20:15.380Z,7.20
2022-11-12T06:23:16.443Z,7.18
2022-11-12T06:26:17.873Z,10.57
2022-11-12T06:29:18.951Z,7.40
2022-11-12T06:32:21.712Z,7.53
2022-11-12T06:35:22.857Z,6.80
2022-11-12T06:38:24.322Z,11.43
2022-11-12T06:41:25.994Z,10.98
2022-11-12T06:44:27.204Z,7.95
2022-11-12T06:47:29.887Z,7.35
2022-11-12T06:50:31.051Z,8.88
2022-11-12T06:53:32.111Z,9.80
2022-11-12T06:56:33.621Z,7.68
2022-11-12T06:59:35.191Z,7.45
2022-11-12T07:02:37.999Z,7.30
2022-11-12T07:05:39.421Z,8.10
2022-11-12T07:08:40.958Z,7.90
2022-11-12T07:11:42.217Z,9.32
2022-11-12T07:14:43.396Z,8.35
2022-11-12T07:17:47.434Z,7.25
2022-11-12T07:20:48.958Z,9.10
2022-11-12T07:23:50.802Z,8.10
2022-11-12T07:26:51.876Z,8.52
2022-11-12T07:29:53.015Z,9.48
2022-11-12T07:32:58.439Z,10.70
2022-11-12T07:36:00.916Z,8.40
2022-11-12T07:39:01.954Z,9.30
2022-11-12T07:42:03.256Z,11.00
2022-11-12T07:45:04.587Z,10.60
2022-11-12T07:48:07.711Z,8.95
2022-11-12T07:51:12.769Z,12.85
2022-11-12T07:54:14.442Z,9.63
2022-11-12T07:57:15.626Z,11.77
2022-11-12T08:00:17.072Z,9.77
2022-11-12T08:03:19.999Z,10.02
2022-11-12T08:06:21.605Z,10.55
2022-11-12T08:09:23.026Z,8.55
2022-11-12T08:12:24.257Z,9.30
2022-11-12T08:15:25.431Z,12.63
2022-11-12T08:18:28.543Z,9.18
2022-11-12T08:21:30.265Z,11.55
2022-11-12T08:24:31.473Z,10.93
2022-11-12T08:27:32.550Z,14.88
2022-11-12T08:30:33.597Z,12.60
2022-11-12T08:33:36.232Z,10.50
2022-11-12T08:36:37.243Z,9.88
2022-11-12T08:39:38.422Z,10.48
2022-11-12T08:42:40.238Z,12.57
2022-11-12T08:45:42.137Z,10.38
2022-11-12T08:48:44.999Z,11.18
2022-11-12T08:51:46.802Z,14.57
2022-11-12T08:54:48.122Z,13.38
2022-11-12T08:57:49.893Z,10.77
2022-11-12T09:00:51.175Z,13.70
2022-11-12T09:03:53.863Z,11.10
2022-11-12T09:06:55.444Z,11.68
2022-11-12T09:09:56.715Z,11.80
2022-11-12T09:12:58.199Z,10.90
2022-11-12T09:16:03.618Z,11.30
2022-11-12T09:19:06.317Z,11.48
2022-11-12T09:22:07.777Z,13.55
2022-11-12T09:25:09.614Z,11.10
2022-11-12T09:28:11.576Z,11.80
2022-11-12T09:31:12.955Z,12.05
2022-11-12T09:34:15.824Z,13.25
2022-11-12T09:37:17.099Z,12.32
2022-11-12T09:40:19.873Z,11.40
2022-11-12T09:43:23.489Z,11.73
2022-11-12T09:46:28.803Z,10.30
2022-11-12T09:49:33.870Z,13.35
2022-11-12T09:52:35.072Z,10.00
2022-11-12T09:55:38.685Z,14.88
2022-11-12T09:58:40.034Z,11.80
2022-11-12T10:01:50.554Z,12.30
2022-11-12T10:04:58.188Z,15.27
2022-11-12T10:08:21.308Z,13.18
2022-11-12T10:11:52.190Z,10.40
2022-11-12T10:15:22.402Z,12.75
2022-11-12T10:18:30.247Z,11.25
2022-11-12T10:21:36.242Z,10.73
2022-11-12T10:24:38.141Z,12.00
2022-11-12T10:27:40.974Z,13.82
2022-11-12T10:30:43.925Z,10.73
2022-11-12T10:33:45.232Z,11.70
2022-11-12T10:36:50.019Z,11.23
2022-11-12T10:39:51.690Z,11.35
2022-11-12T10:42:57.227Z,12.73
2022-11-12T10:46:13.457Z,10.80
2022-11-12T10:49:24.291Z,10.63
2022-11-12T10:52:27.110Z,10.85
2022-11-12T10:55:29.129Z,11.68
2022-11-12T10:58:30.645Z,14.57
2022-11-12T11:01:35.691Z,8.82
2022-11-12T11:04:38.682Z,10.52
2022-11-12T11:07:50.670Z,10.55
2022-11-12T11:11:09.778Z,13.02
2022-11-12T11:14:25.222Z,10.65
2022-11-12T11:17:26.628Z,12.13
2022-11-12T11:20:31.951Z,10.98
2022-11-12T11:23:37.086Z,12.82
2022-11-12T11:26:43.612Z,10.00
2022-11-12T11:30:01.446Z,10.48
2022-11-12T11:33:16.287Z,8.77
2022-11-12T11:36:20.558Z,9.50
2022-11-12T11:39:26.248Z,7.45
2022-11-12T11:42:40.089Z,8.38
2022-11-12T11:45:51.585Z,7.25
2022-11-12T11:48:59.379Z,8.82
2022-11-12T11:52:04.051Z,9.15
2022-11-12T11:55:10.519Z,9.27
2022-11-12T11:58:15.726Z,6.75
2022-11-12T12:01:21.786Z,7.32
2022-11-12T12:04:34.709Z,11.07
2022-11-12T12:07:39.157Z,7.75
2022-11-12T12:14:26.198Z,5.65
2022-11-12T12:17:33.472Z,7.90
2022-11-12T12:20:39.863Z,6.97
2022-11-12T12:23:42.959Z,7.07
2022-11-12T12:26:47.869Z,9.50
2022-11-12T12:29:52.070Z,6.90
2022-11-12T12:32:56.902Z,6.53
2022-11-12T12:36:00.831Z,5.85
2022-11-12T12:39:14.061Z,9.45
2022-11-12T12:42:21.482Z,9.20
2022-11-12T12:45:35.753Z,7.22
2022-11-12T12:48:39.874Z,8.75
2022-11-12T12:51:41.094Z,7.90
2022-11-12T12:54:58.628Z,8.90
2022-11-12T12:58:01.233Z,9.98
2022-11-12T13:01:04.174Z,6.47
2022-11-12T13:04:08.699Z,5.93
2022-11-12T13:07:11.087Z,7.40
2022-11-12T13:10:39.221Z,9.55
2022-11-12T13:13:41.750Z,5.90
2022-11-12T13:16:59.352Z,11.18
2022-11-12T13:20:21.587Z,7.70
2022-11-12T13:24:01.320Z,7.95
2022-11-12T13:27:02.442Z,6.45
2022-11-12T13:30:08.290Z,7.28
2022-11-12T13:33:22.593Z,7.07
2022-11-12T13:36:27.914Z,5.60
2022-11-12T13:39:29.597Z,7.38
2022-11-12T13:42:48.032Z,5.68
2022-11-12T13:45:53.938Z,6.10
2022-11-12T13:48:59.481Z,9.23
2022-11-12T13:52:00.787Z,8.25
2022-11-12T13:55:02.141Z,7.28
2022-11-12T13:58:03.380Z,6.75
2022-11-12T14:01:06.662Z,8.85
2022-11-12T14:04:08.362Z,8.38
2022-11-12T14:07:18.696Z,6.28
2022-11-12T14:10:26.609Z,7.15
2022-11-12T14:13:36.714Z,7.93
2022-11-12T14:16:44.490Z,10.68
2022-11-12T14:20:03.867Z,7.35
2022-11-12T14:23:06.023Z,5.60
2022-11-12T14:26:07.093Z,6.32
2022-11-12T14:29:08.648Z,9.55
2022-11-12T14:32:11.421Z,7.07
2022-11-12T14:35:33.977Z,8.38
2022-11-12T14:38:38.385Z,6.47
2022-11-12T14:41:46.013Z,7.03
2022-11-12T14:44:47.420Z,9.00
2022-11-12T14:47:50.745Z,9.20
2022-11-12T14:50:56.679Z,7.75
2022-11-12T14:53:59.977Z,10.43
2022-11-12T14:57:03.699Z,9.68
2022-11-12T15:00:18.869Z,8.90
2022-11-12T15:03:22.539Z,12.43
2022-11-12T15:06:29.868Z,9.63
2022-11-12T15:09:35.529Z,9.27
2022-11-12T15:12:37.246Z,8.82
2022-11-12T15:15:39.601Z,10.48
2022-11-12T15:18:42.294Z,8.77
2022-11-12T15:21:47.660Z,9.75
2022-11-12T15:24:49.688Z,8.82
2022-11-12T15:27:51.535Z,9.65
2022-11-12T15:31:01.416Z,16.70
2022-11-12T15:34:17.312Z,11.30
2022-11-12T15:37:25.569Z,13.07
2022-11-12T15:40:27.491Z,11.85
2022-11-12T15:43:30.421Z,14.20
2022-11-12T15:46:32.547Z,13.52
2022-11-12T15:49:35.188Z,11.90
2022-11-12T15:52:37.754Z,12.98
2022-11-12T15:55:39.851Z,10.75
2022-11-12T15:58:41.401Z,15.80
2022-11-12T16:01:43.167Z,23.98
2022-11-12T16:04:44.819Z,23.55
2022-11-12T16:07:47.768Z,22.77
2022-11-12T16:10:49.295Z,18.25
2022-11-12T16:13:50.352Z,20.20
2022-11-12T16:16:51.674Z,15.43
2022-11-12T16:19:53.036Z,17.40
2022-11-12T16:22:55.759Z,14.73
2022-11-12T16:25:56.995Z,16.05
2022-11-12T16:28:58.626Z,15.93
2022-11-12T16:31:59.704Z,14.07
2022-11-12T16:35:01.589Z,16.48
2022-11-12T16:38:04.437Z,17.48
2022-11-12T16:41:06.018Z,18.77
2022-11-12T16:44:07.380Z,27.65
2022-11-12T16:47:11.854Z,26.83
2022-11-12T16:50:13.719Z,25.10
2022-11-12T16:53:16.136Z,22.02
2022-11-12T16:56:19.421Z,21.42
2022-11-12T16:59:20.954Z,21.65
2022-11-12T17:02:22.232Z,19.52
2022-11-12T17:05:24.881Z,27.98
2022-11-12T17:08:33.666Z,26.88
2022-11-12T17:11:35.875Z,17.67
2022-11-12T17:14:37.261Z,17.73
2022-11-12T17:17:38.682Z,17.98
2022-11-12T17:20:40.185Z,17.58
2022-11-12T17:23:43.696Z,15.15
2022-11-12T17:26:45.214Z,18.48
2022-11-12T17:29:46.928Z,17.92
2022-11-12T17:32:49.053Z,17.08
2022-11-12T17:35:50.429Z,20.25
2022-11-12T17:38:56.287Z,19.42
2022-11-12T17:41:57.555Z,18.15
2022-11-12T17:44:58.857Z,22.00
2022-11-12T17:48:00.609Z,26.23
2022-11-12T17:51:05.775Z,26.95
2022-11-12T17:54:08.562Z,19.92
2022-11-12T17:57:10.403Z,22.52
2022-11-12T18:00:12.600Z,19.25
2022-11-12T18:03:13.617Z,15.88
2022-11-12T18:06:17.143Z,19.67
2022-11-12T18:09:19.845Z,17.77
2022-11-12T18:12:20.957Z,17.65
2022-11-12T18:15:22.307Z,17.95
2022-11-12T18:18:23.228Z,17.42
2022-11-12T18:21:24.889Z,15.90
2022-11-12T18:24:27.627Z,14.70
2022-11-12T18:27:28.974Z,15.52
2022-11-12T18:30:30.269Z,13.40
2022-11-12T18:33:32.091Z,13.38
2022-11-12T18:36:33.522Z,12.35
2022-11-12T18:39:36.201Z,17.15
2022-11-12T18:42:37.569Z,15.95
2022-11-12T18:45:39.352Z,19.17
2022-11-12T18:48:41.447Z,18.02
2022-11-12T18:51:42.334Z,19.00
2022-11-12T18:54:44.744Z,14.75
2022-11-12T18:57:45.988Z,14.82
2022-11-12T19:00:47.141Z,12.05
2022-11-12T19:03:48.585Z,13.15
2022-11-12T19:06:49.772Z,10.27
2022-11-12T19:09:52.521Z,13.23
2022-11-12T19:12:53.593Z,13.80
2022-11-12T19:15:54.691Z,29.00
2022-11-12T19:18:56.180Z,20.92
2022-11-12T19:21:57.911Z,23.33
2022-11-12T19:25:02.460Z,23.27
2022-11-12T19:28:03.926Z,16.75
2022-11-12T19:31:06.088Z,18.75
2022-11-12T19:34:07.414Z,13.63
2022-11-12T19:37:32.261Z,17.35
2022-11-12T19:40:31.828Z,14.90
2022-11-12T19:43:32.905Z,13.90
2022-11-12T19:46:34.227Z,12.63
2022-11-12T19:49:35.904Z,14.63
2022-11-12T19:52:37.359Z,11.65
2022-11-12T19:55:40.214Z,10.05
2022-11-12T19:58:45.298Z,11.93
2022-11-12T20:01:46.620Z,11.60
2022-11-12T20:04:47.668Z,9.20
2022-11-12T20:07:50.552Z,10.73
2022-11-12T20:10:52.818Z,9.77
2022-11-12T20:13:54.272Z,10.10
2022-11-12T20:16:55.549Z,8.70
2022-11-12T20:19:56.684Z,10.77
2022-11-12T20:22:59.473Z,14.15
2022-11-12T20:26:06.341Z,11.02
2022-11-12T20:29:07.881Z,10.30
2022-11-12T20:32:09.139Z,12.73
2022-11-12T20:35:16.457Z,11.80
2022-11-12T20:38:21.032Z,12.45
2022-11-12T20:41:24.705Z,14.27
2022-11-12T20:44:25.781Z,12.48
2022-11-12T20:47:27.160Z,13.45
2022-11-12T20:50:28.325Z,11.93
2022-11-12T20:53:29.519Z,12.45
2022-11-12T20:56:32.505Z,13.07
2022-11-12T20:59:33.587Z,13.52
2022-11-12T21:02:34.963Z,11.77
2022-11-12T21:05:36.154Z,9.75
2022-11-12T21:08:37.146Z,12.32
2022-11-12T21:11:39.969Z,12.40
2022-11-12T21:14:45.976Z,13.45
2022-11-12T21:17:53.567Z,11.30
2022-11-12T21:21:01.091Z,11.13
2022-11-12T21:24:05.115Z,13.20
2022-11-12T21:27:08.226Z,10.95
2022-11-12T21:30:10.656Z,11.85
2022-11-12T21:33:12.844Z,11.07
2022-11-12T21:36:16.518Z,12.32
2022-11-12T21:39:18.142Z,16.45
2022-11-12T21:42:20.910Z,12.40
2022-11-12T21:45:22.177Z,13.88
2022-11-12T21:48:23.910Z,15.90
2022-11-12T21:51:26.106Z,12.23
2022-11-12T21:54:27.491Z,12.73
2022-11-12T21:57:30.474Z,13.25
2022-11-12T22:00:46.871Z,14.88
2022-11-12T22:03:48.510Z,16.10
2022-11-12T22:06:49.999Z,11.18
2022-11-12T22:09:56.577Z,10.93
2022-11-12T22:13:25.330Z,10.65
2022-11-12T22:16:22.686Z,14.68
2022-11-12T22:19:24.098Z,11.38
2022-11-12T22:22:25.478Z,10.07
2022-11-12T22:25:26.974Z,13.75
2022-11-12T22:28:30.164Z,13.27
2022-11-12T22:31:33.057Z,10.45
2022-11-12T22:34:34.387Z,10.18
2022-11-12T22:37:35.355Z,11.00
2022-11-12T22:40:36.477Z,11.68
2022-11-12T22:43:38.944Z,8.30
2022-11-12T22:46:40.352Z,10.95
2022-11-12T22:49:41.354Z,9.50
2022-11-12T22:52:48.832Z,8.60
2022-11-12T22:55:51.328Z,10.85
2022-11-12T22:58:54.041Z,10.52
2022-11-12T23:01:55.515Z,11.63
2022-11-12T23:04:56.826Z,12.82
2022-11-12T23:07:58.507Z,10.88
2022-11-12T23:11:02.936Z,10.07
2022-11-12T23:14:05.840Z,10.13
2022-11-12T23:17:06.955Z,10.00
2022-11-12T23:20:08.683Z,10.93
2022-11-12T23:23:09.986Z,9.55
2022-11-12T23:26:12.479Z,9.80
2022-11-12T23:29:15.183Z,9.68
2022-11-12T23:32:16.530Z,10.90
2022-11-12T23:35:17.666Z,7.78
2022-11-12T23:38:19.048Z,11.15
2022-11-12T23:41:22.724Z,8.82
2022-11-12T23:44:25.119Z,7.90
2022-11-12T23:47:26.196Z,10.00
2022-11-12T23:50:27.523Z,11.23
2022-11-12T23:53:28.453Z,10.07
2022-11-12T23:56:29.882Z,10.35
2022-11-12T23:59:32.361Z,11.02
